KCFD/CFD METAR and TAF weather

Enter ICAO airport designator
Station Type Date Time Source
KCFD METAR 2019/04/23 00:15 UTC NOAA

KCFD 230015Z AUTO 16012G15KT 10SM CLR 24/15 A3002 RMK AO2 T02350153


Station Type Date Time Source
KCFD Decoded METAR 2019/04/23 00:15 UTC NOAA

Station name not available
Apr 22, 2019 - 08:15 PM EDT / 2019.04.23 0015 UTC
Wind: from the SSE (160 degrees) at 14 MPH (12 KT) gusting to 17 MPH (15 KT):0
Visibility: 10 mile(s):0
Sky conditions: clear
Temperature: 74.3 F (23.5 C)
Dew Point: 59.5 F (15.3 C)
Relative Humidity: 60%
Pressure (altimeter): 30.02 in. Hg (1016 hPa)
ob: KCFD 230015Z AUTO 16012G15KT 10SM CLR 24/15 A3002 RMK AO2 T02350153
cycle: 0

Station Type Date Time Source
KCFD TAF UTC NOAA

Error!

Example: see airport list